createdAt,value
2019-05-14T00:02:21.340Z,6.60
2019-05-14T00:06:24.491Z,6.60
2019-05-14T00:10:28.173Z,6.60
2019-05-14T00:14:39.682Z,6.50
2019-05-14T00:18:37.026Z,6.50
2019-05-14T00:22:41.670Z,6.40
2019-05-14T00:26:45.467Z,6.40
2019-05-14T00:30:48.915Z,6.30
2019-05-14T00:34:52.595Z,6.30
2019-05-14T00:38:56.026Z,6.40
2019-05-14T00:43:02.400Z,6.40
2019-05-14T00:47:04.734Z,6.40
2019-05-14T00:51:08.167Z,6.30
2019-05-14T00:55:11.931Z,6.20
2019-05-14T00:59:15.681Z,6.10
2019-05-14T01:03:19.121Z,6.10
2019-05-14T01:07:22.562Z,6.10
2019-05-14T01:11:26.066Z,6.00
2019-05-14T01:15:32.036Z,6.00
2019-05-14T01:19:35.175Z,6.00
2019-05-14T01:23:38.878Z,6.00
2019-05-14T01:27:42.397Z,5.90
2019-05-14T01:31:45.906Z,5.80
2019-05-14T01:35:51.505Z,5.80
2019-05-14T01:39:54.778Z,5.70
2019-05-14T01:43:58.214Z,5.60
2019-05-14T01:48:01.913Z,5.50
2019-05-14T01:52:05.349Z,5.40
2019-05-14T01:56:08.790Z,5.40
2019-05-14T02:00:13.262Z,5.30
2019-05-14T02:04:16.700Z,5.30
2019-05-14T02:08:21.406Z,5.30
2019-05-14T02:12:25.069Z,5.40
2019-05-14T02:16:30.900Z,5.30
2019-05-14T02:20:34.208Z,5.30
2019-05-14T02:24:37.918Z,5.30
2019-05-14T02:28:42.181Z,5.30
2019-05-14T02:32:45.716Z,5.30
2019-05-14T02:36:49.786Z,5.20
2019-05-14T02:40:53.793Z,5.10
2019-05-14T02:44:59.270Z,5.10
2019-05-14T02:49:01.611Z,5.10
2019-05-14T02:53:05.309Z,5.10
2019-05-14T02:57:10.466Z,5.00
2019-05-14T03:01:14.282Z,5.00
2019-05-14T03:05:19.269Z,5.00
2019-05-14T03:09:23.014Z,5.00
2019-05-14T03:13:29.318Z,5.00
2019-05-14T03:17:30.901Z,5.00
2019-05-14T03:21:34.617Z,4.90
2019-05-14T03:25:39.946Z,4.80
2019-05-14T03:29:43.474Z,4.80
2019-05-14T03:33:52.063Z,4.90
2019-05-14T03:37:51.365Z,4.90
2019-05-14T03:41:54.797Z,4.90
2019-05-14T03:45:59.284Z,4.90
2019-05-14T03:50:03.271Z,4.90
2019-05-14T03:54:11.320Z,4.80
2019-05-14T03:58:11.884Z,4.80
2019-05-14T04:02:19.579Z,4.80
2019-05-14T04:06:20.967Z,4.40
2019-05-14T04:10:24.563Z,4.10
2019-05-14T04:14:31.422Z,4.00
2019-05-14T04:18:39.782Z,3.90
2019-05-14T04:22:41.533Z,3.90
2019-05-14T04:26:58.259Z,4.10
2019-05-14T04:30:55.704Z,4.40
2019-05-14T04:35:00.483Z,4.50
2019-05-14T04:39:09.050Z,4.70
2019-05-14T04:43:10.727Z,4.90
2019-05-14T04:47:27.753Z,5.10
2019-05-14T04:51:20.217Z,5.30
2019-05-14T04:55:23.798Z,5.50
2019-05-14T04:59:29.947Z,5.60
2019-05-14T05:03:32.419Z,5.80
2019-05-14T05:07:36.100Z,5.90
2019-05-14T05:11:39.885Z,6.00
2019-05-14T05:15:43.353Z,6.20
2019-05-14T05:19:51.377Z,6.40
2019-05-14T05:23:51.939Z,6.50
2019-05-14T05:27:56.559Z,6.70
2019-05-14T05:32:00.933Z,6.80
2019-05-14T05:36:04.767Z,7.00
2019-05-14T05:40:09.252Z,7.10
2019-05-14T05:44:12.875Z,7.30
2019-05-14T05:48:18.789Z,7.40
2019-05-14T05:52:22.020Z,7.50
2019-05-14T05:56:25.511Z,7.60
2019-05-14T06:00:40.064Z,7.70
2019-05-14T06:04:42.710Z,7.80
2019-05-14T06:08:46.141Z,8.00
2019-05-14T06:12:49.592Z,8.20
2019-05-14T06:16:53.102Z,8.40
2019-05-14T06:20:58.632Z,8.60
2019-05-14T06:25:02.171Z,8.80
2019-05-14T06:29:08.196Z,9.00
2019-05-14T06:33:10.902Z,9.10
2019-05-14T06:37:14.349Z,9.20
2019-05-14T06:41:19.050Z,9.40
2019-05-14T06:45:22.862Z,9.50
2019-05-14T06:49:28.775Z,9.70
2019-05-14T06:53:31.737Z,9.90
2019-05-14T06:57:35.223Z,10.20
2019-05-14T07:01:38.677Z,10.50
2019-05-14T07:05:42.115Z,10.60
2019-05-14T07:09:45.561Z,10.80
2019-05-14T07:13:49.455Z,10.70
2019-05-14T07:17:52.997Z,10.80
2019-05-14T07:21:58.280Z,10.90
2019-05-14T07:26:01.923Z,11.20
2019-05-14T07:30:08.994Z,11.30
2019-05-14T07:34:12.315Z,11.50
2019-05-14T07:38:15.767Z,11.90
2019-05-14T07:42:19.222Z,11.90
2019-05-14T07:46:22.918Z,12.00
2019-05-14T07:50:28.816Z,12.30
2019-05-14T07:54:31.520Z,12.70
2019-05-14T07:58:34.971Z,12.80
2019-05-14T08:02:38.493Z,13.00
2019-05-14T08:06:41.931Z,13.10
2019-05-14T08:10:45.642Z,13.10
2019-05-14T08:15:09.531Z,13.40
2019-05-14T08:18:54.018Z,13.70
2019-05-14T08:22:58.212Z,13.60
2019-05-14T08:27:01.791Z,13.90
2019-05-14T08:31:05.224Z,14.20
2019-05-14T08:35:09.670Z,14.40
2019-05-14T08:39:13.182Z,14.50
2019-05-14T08:43:18.487Z,14.50
2019-05-14T08:47:21.863Z,14.70
2019-05-14T08:51:25.640Z,14.70
2019-05-14T08:55:29.709Z,14.80
2019-05-14T08:59:33.226Z,15.00
2019-05-14T09:03:39.356Z,15.10
2019-05-14T09:07:41.929Z,15.30
2019-05-14T09:11:46.624Z,15.50
2019-05-14T09:15:50.791Z,15.40
2019-05-14T09:20:02.249Z,15.80
2019-05-14T09:23:59.922Z,16.20
2019-05-14T09:28:03.376Z,16.00
2019-05-14T09:32:09.330Z,15.90
2019-05-14T09:36:19.614Z,15.50
2019-05-14T09:40:19.542Z,15.00
2019-05-14T09:44:22.557Z,15.10
2019-05-14T09:48:28.182Z,15.40
2019-05-14T09:52:31.451Z,16.20
2019-05-14T09:56:34.890Z,16.10
2019-05-14T10:00:38.995Z,15.50
2019-05-14T10:04:42.722Z,15.40
2019-05-14T10:08:48.411Z,15.50
2019-05-14T10:12:56.327Z,15.50
2019-05-14T10:16:58.270Z,15.00
2019-05-14T10:21:01.885Z,14.50
2019-05-14T10:25:05.674Z,14.60
2019-05-14T10:29:09.210Z,15.20
2019-05-14T10:33:14.998Z,15.70
2019-05-14T10:37:19.134Z,15.90
2019-05-14T10:41:22.830Z,15.50
2019-05-14T10:45:28.764Z,14.90
2019-05-14T10:49:33.692Z,14.30
2019-05-14T10:53:37.246Z,14.30
2019-05-14T10:57:40.675Z,14.70
2019-05-14T11:01:44.369Z,15.30
2019-05-14T11:05:48.258Z,15.60
2019-05-14T11:09:51.785Z,15.70
2019-05-14T11:13:55.535Z,15.60
2019-05-14T11:17:59.236Z,15.10
2019-05-14T11:22:02.763Z,14.90
2019-05-14T11:26:09.024Z,15.40
2019-05-14T11:30:13.392Z,15.30
2019-05-14T11:34:19.323Z,15.10
2019-05-14T11:38:29.816Z,15.10
2019-05-14T11:42:31.196Z,15.50
2019-05-14T11:46:43.660Z,15.70
2019-05-14T11:50:37.241Z,15.60
2019-05-14T11:54:41.228Z,15.40
2019-05-14T11:58:44.787Z,15.40
2019-05-14T12:02:48.298Z,15.70
2019-05-14T12:06:52.004Z,15.50
2019-05-14T12:10:55.783Z,15.70
2019-05-14T12:14:59.466Z,15.80
2019-05-14T12:19:02.906Z,15.70
2019-05-14T12:23:08.932Z,15.10
2019-05-14T12:27:11.791Z,15.00
2019-05-14T12:31:15.251Z,15.40
2019-05-14T12:35:19.687Z,15.00
2019-05-14T12:39:23.497Z,14.60
2019-05-14T12:43:28.329Z,14.70
2019-05-14T12:47:32.073Z,14.90
2019-05-14T12:51:39.335Z,14.50
2019-05-14T12:55:41.017Z,14.80
2019-05-14T12:59:44.454Z,14.90
2019-05-14T13:03:48.493Z,15.10
2019-05-14T13:07:52.021Z,15.30
2019-05-14T13:11:55.483Z,15.30
2019-05-14T13:15:58.947Z,15.40
2019-05-14T13:20:02.549Z,15.20
2019-05-14T13:24:08.764Z,14.90
2019-05-14T13:28:11.308Z,14.50
2019-05-14T13:32:15.031Z,14.50
2019-05-14T13:36:20.474Z,14.80
2019-05-14T13:40:23.639Z,15.20
2019-05-14T13:44:29.170Z,15.40
2019-05-14T13:48:32.583Z,15.40
2019-05-14T13:52:38.953Z,15.50
2019-05-14T13:56:41.526Z,15.50
2019-05-14T14:00:44.976Z,15.60
2019-05-14T14:04:48.420Z,15.80
2019-05-14T14:08:51.863Z,15.20
2019-05-14T14:12:55.567Z,14.80
2019-05-14T14:16:59.014Z,14.80
2019-05-14T14:21:02.466Z,15.10
2019-05-14T14:25:08.896Z,15.40
2019-05-14T14:29:12.271Z,15.30
2019-05-14T14:33:18.325Z,15.20
2019-05-14T14:37:21.461Z,15.30
2019-05-14T14:41:25.189Z,15.30
2019-05-14T14:45:29.269Z,15.40
2019-05-14T14:49:33.466Z,15.40
2019-05-14T14:53:51.446Z,15.20
2019-05-14T14:57:45.551Z,14.80
2019-05-14T15:01:50.167Z,14.50
2019-05-14T15:05:52.771Z,14.60
2019-05-14T15:09:59.421Z,14.90
2019-05-14T15:14:01.644Z,15.20
2019-05-14T15:18:05.100Z,15.50
2019-05-14T15:22:08.851Z,15.40
2019-05-14T15:26:12.561Z,15.00
2019-05-14T15:30:16.282Z,14.60
2019-05-14T15:34:19.738Z,14.30
2019-05-14T15:38:23.643Z,14.30
2019-05-14T15:42:28.350Z,14.60
2019-05-14T15:46:41.359Z,14.80
2019-05-14T15:50:40.739Z,15.00
2019-05-14T15:54:47.405Z,15.00
2019-05-14T15:58:49.470Z,15.20
2019-05-14T16:02:52.914Z,15.30
2019-05-14T16:06:58.637Z,15.30
2019-05-14T16:11:05.381Z,15.40
2019-05-14T16:15:09.157Z,15.80
2019-05-14T16:19:12.724Z,15.40
2019-05-14T16:23:18.623Z,14.90
2019-05-14T16:27:21.333Z,14.80
2019-05-14T16:31:24.806Z,15.10
2019-05-14T16:35:28.642Z,15.40
2019-05-14T16:39:39.183Z,15.20
2019-05-14T16:43:40.036Z,15.00
2019-05-14T16:47:42.630Z,14.70
2019-05-14T16:51:46.085Z,14.20
2019-05-14T16:55:49.547Z,13.80
2019-05-14T16:59:53.311Z,13.80
2019-05-14T17:03:59.422Z,14.00
2019-05-14T17:08:02.530Z,14.00
2019-05-14T17:12:08.336Z,14.20
2019-05-14T17:16:11.599Z,14.10
2019-05-14T17:20:15.192Z,14.10
2019-05-14T17:24:20.078Z,14.00
2019-05-14T17:28:23.678Z,13.90
2019-05-14T17:32:30.107Z,13.80
2019-05-14T17:36:32.327Z,13.70
2019-05-14T17:40:35.795Z,13.60
2019-05-14T17:44:39.282Z,13.60
2019-05-14T17:48:42.983Z,13.50
2019-05-14T17:52:55.389Z,13.50
2019-05-14T17:56:51.993Z,13.50
2019-05-14T18:00:58.016Z,13.30
2019-05-14T18:05:00.690Z,13.20
2019-05-14T18:09:05.382Z,13.10
2019-05-14T18:13:09.601Z,12.90
2019-05-14T18:17:14.793Z,12.70
2019-05-14T18:21:18.557Z,12.60
2019-05-14T18:25:22.041Z,12.30
2019-05-14T18:29:25.763Z,12.20
2019-05-14T18:33:31.163Z,12.00
2019-05-14T18:37:34.416Z,11.80
2019-05-14T18:41:38.940Z,11.70
2019-05-14T18:45:42.678Z,11.60
2019-05-14T18:49:48.184Z,11.60
2019-05-14T18:53:51.504Z,11.50
2019-05-14T18:57:55.028Z,11.40
2019-05-14T19:01:59.475Z,11.40
2019-05-14T19:06:03.192Z,11.30
2019-05-14T19:10:09.124Z,11.20
2019-05-14T19:14:12.204Z,11.10
2019-05-14T19:18:15.730Z,11.00
2019-05-14T19:22:19.241Z,10.80
2019-05-14T19:26:33.417Z,10.70
2019-05-14T19:30:28.612Z,10.70
2019-05-14T19:34:32.536Z,10.60
2019-05-14T19:38:35.981Z,10.50
2019-05-14T19:42:39.904Z,10.10
2019-05-14T19:46:43.383Z,9.50
2019-05-14T19:50:48.861Z,9.10
2019-05-14T19:54:51.990Z,8.90
2019-05-14T19:58:55.751Z,8.60
2019-05-14T20:02:59.206Z,7.90
2019-05-14T20:07:02.985Z,7.30
2019-05-14T20:11:06.742Z,7.00
2019-05-14T20:15:10.319Z,7.00
2019-05-14T20:19:14.973Z,7.00
2019-05-14T20:23:18.641Z,7.10
2019-05-14T20:27:22.433Z,7.20
2019-05-14T20:31:26.126Z,7.20
2019-05-14T20:35:34.497Z,7.30
2019-05-14T20:39:35.031Z,7.30
2019-05-14T20:43:38.698Z,7.30
2019-05-14T20:47:42.290Z,7.20
2019-05-14T20:51:45.730Z,6.80
2019-05-14T20:55:49.181Z,6.60
2019-05-14T20:59:52.907Z,6.50
2019-05-14T21:03:56.403Z,6.40
2019-05-14T21:07:59.895Z,6.30
2019-05-14T21:12:03.327Z,6.10
2019-05-14T21:16:08.362Z,5.90
2019-05-14T21:20:13.715Z,5.70
2019-05-14T21:24:18.146Z,5.60
2019-05-14T21:28:22.326Z,5.50
2019-05-14T21:32:28.265Z,5.30
2019-05-14T21:36:30.926Z,5.30
2019-05-14T21:40:34.374Z,5.20
2019-05-14T21:44:39.181Z,4.90
2019-05-14T21:48:42.815Z,4.70
2019-05-14T21:52:46.515Z,4.40
2019-05-14T21:56:50.212Z,4.40
2019-05-14T22:00:54.425Z,4.30
2019-05-14T22:05:01.240Z,4.30
2019-05-14T22:09:03.622Z,4.10
2019-05-14T22:13:07.066Z,4.10
2019-05-14T22:17:10.514Z,4.00
2019-05-14T22:21:13.967Z,3.80
2019-05-14T22:25:19.021Z,3.80
2019-05-14T22:29:22.869Z,3.80
2019-05-14T22:33:28.322Z,3.80
2019-05-14T22:37:31.475Z,3.50
2019-05-14T22:41:34.917Z,3.50
2019-05-14T22:45:38.357Z,3.50
2019-05-14T22:49:41.830Z,3.40
2019-05-14T22:53:45.283Z,3.30
2019-05-14T22:57:48.969Z,3.30
2019-05-14T23:01:52.671Z,3.10
2019-05-14T23:05:58.092Z,3.00
2019-05-14T23:10:01.323Z,2.80
2019-05-14T23:14:05.101Z,2.80
2019-05-14T23:18:08.746Z,2.70
2019-05-14T23:22:12.550Z,2.70
2019-05-14T23:26:16.270Z,2.70
2019-05-14T23:30:22.794Z,2.80
2019-05-14T23:34:28.364Z,2.70
2019-05-14T23:38:31.822Z,2.80
2019-05-14T23:42:35.523Z,2.80
2019-05-14T23:46:38.975Z,2.70
2019-05-14T23:50:42.533Z,2.60
2019-05-14T23:54:48.093Z,2.40
2019-05-14T23:58:55.683Z,2.40
